Time;durP1;ratioP1;P1;durP2;ratioP2;P2;SDS_P1;SDS_P2;PMS_P1;PMS_P2;Temp;Humidity;BMP_temperature;BMP_pressure;BME280_temperature;BME280_humidity;BME280_pressure;Samples;Min_cycle;Max_cycle;Signal;HPM_P1;HPM_P2
2023/04/22 05:52:03;;;;;;;3.95;3.45;;;;;;;;;;10507490;28;20499;-83
2023/04/22 05:57:04;;;;;;;4.97;3.40;;;;;;;;;;10526054;22;20524;-86
2023/04/22 06:02:06;;;;;;;3.35;3.00;;;;;;;;;;10413396;28;20033;-85
2023/04/22 06:07:07;;;;;;;;;;;;;;;;;;10421707;28;20057;-85
2023/04/22 06:12:08;;;;;;;6.90;3.67;;;;;;;;;;10423030;28;19909;-85
2023/04/22 06:17:09;;;;;;;6.40;3.40;;;;;;;;;;10418843;28;20088;-85
2023/04/22 06:22:16;;;;;;;5.20;3.40;;;;;;;;;;10415107;28;20026;-86
2023/04/22 06:27:17;;;;;;;5.50;3.38;;;;;;;;;;10411715;28;20483;-86
2023/04/22 06:32:18;;;;;;;5.53;3.30;;;;;;;;;;10410798;28;20034;-86
2023/04/22 06:37:19;;;;;;;4.10;2.97;;;;;;;;;;10410061;28;20035;-86
2023/04/22 06:42:20;;;;;;;3.83;3.10;;;;;;;;;;10410724;28;20075;-87
2023/04/22 06:47:21;;;;;;;5.45;3.60;;;;;;;;;;10407797;28;20427;-85
2023/04/22 06:52:22;;;;;;;5.00;3.25;;;;;;;;;;10410964;28;20048;-86
2023/04/22 06:57:23;;;;;;;6.32;3.15;;;;;;;;;;10414419;28;20033;-81
2023/04/22 07:02:24;;;;;;;4.97;3.40;;;;;;;;;;10392763;28;20132;-83
2023/04/22 07:07:26;;;;;;;4.65;3.70;;;;;;;;;;10386013;28;20428;-82
2023/04/22 07:12:27;;;;;;;4.82;3.83;;;;;;;;;;10387406;28;20034;-82
2023/04/22 07:17:28;;;;;;;6.18;4.13;;;;;;;;;;10387325;28;20030;-83
2023/04/22 07:22:29;;;;;;;6.30;3.70;;;;;;;;;;10386311;28;20201;-82
2023/04/22 07:27:30;;;;;;;5.18;3.70;;;;;;;;;;10391682;28;20487;-82
2023/04/22 07:32:31;;;;;;;4.32;3.28;;;;;;;;;;10398258;28;20057;-82
2023/04/22 07:37:32;;;;;;;4.68;3.85;;;;;;;;;;10394457;28;20128;-82
2023/04/22 07:42:33;;;;;;;7.55;4.60;;;;;;;;;;10393108;28;20049;-83
2023/04/22 07:47:34;;;;;;;5.63;3.67;;;;;;;;;;10390855;28;20033;-84
2023/04/22 07:52:35;;;;;;;5.45;4.00;;;;;;;;;;10389809;28;20038;-81
2023/04/22 07:57:37;;;;;;;4.47;3.05;;;;;;;;;;10391421;28;20409;-83
2023/04/22 08:02:38;;;;;;;3.25;2.70;;;;;;;;;;10387058;28;20072;-82
2023/04/22 08:07:40;;;;;;;3.88;2.40;;;;;;;;;;10394213;28;20049;-82
2023/04/22 08:12:41;;;;;;;3.38;2.38;;;;;;;;;;10388376;28;20380;-82
2023/04/22 08:17:42;;;;;;;3.92;2.20;;;;;;;;;;10390888;28;20034;-82
2023/04/22 08:22:43;;;;;;;3.42;2.50;;;;;;;;;;10385937;28;20029;-82
2023/04/22 08:27:44;;;;;;;4.28;2.50;;;;;;;;;;10386848;28;20403;-82
2023/04/22 08:32:46;;;;;;;3.83;2.88;;;;;;;;;;10386636;28;20061;-82
2023/04/22 08:37:47;;;;;;;8.80;6.10;;;;;;;;;;10386395;28;20025;-83
2023/04/22 08:42:51;;;;;;;3.20;2.33;;;;;;;;;;10386472;28;20101;-82
2023/04/22 08:47:52;;;;;;;3.10;2.42;;;;;;;;;;10387720;28;20022;-83
2023/04/22 08:52:53;;;;;;;4.65;2.10;;;;;;;;;;10388586;28;20074;-83
2023/04/22 08:57:54;;;;;;;2.20;1.90;;;;;;;;;;10385469;28;20037;-83
2023/04/22 09:02:56;;;;;;;2.85;2.05;;;;;;;;;;10386027;28;20021;-82
2023/04/22 09:07:58;;;;;;;3.40;2.33;;;;;;;;;;10387235;28;20037;-81
2023/04/22 09:12:59;;;;;;;2.72;1.85;;;;;;;;;;10389804;28;20030;-83
2023/04/22 09:18:02;;;;;;;2.85;1.90;;;;;;;;;;10386371;28;20120;-82
2023/04/22 09:23:04;;;;;;;2.10;1.73;;;;;;;;;;10385274;28;20022;-82
2023/04/22 09:28:05;;;;;;;7.95;7.15;;;;;;;;;;10384911;28;20446;-82
2023/04/22 09:33:06;;;;;;;2.42;2.10;;;;;;;;;;10390449;28;20030;-83
2023/04/22 09:38:08;;;;;;;5.38;3.47;;;;;;;;;;10386144;28;20342;-82
2023/04/22 09:43:10;;;;;;;3.50;2.20;;;;;;;;;;10386747;28;20203;-82
2023/04/22 09:48:12;;;;;;;3.22;2.65;;;;;;;;;;10387255;28;20022;-82
2023/04/22 09:53:14;;;;;;;2.85;2.15;;;;;;;;;;10386261;28;20031;-85
2023/04/22 09:58:17;;;;;;;3.00;2.00;;;;;;;;;;10386817;28;20041;-84
2023/04/22 10:03:18;;;;;;;3.53;2.22;;;;;;;;;;10388488;28;20033;-85
2023/04/22 10:08:19;;;;;;;3.58;2.10;;;;;;;;;;10387872;28;20052;-84
2023/04/22 10:13:21;;;;;;;2.75;1.90;;;;;;;;;;10387532;28;20173;-84
2023/04/22 10:18:23;;;;;;;5.97;2.80;;;;;;;;;;10386846;28;20025;-84
2023/04/22 10:23:25;;;;;;;2.38;1.95;;;;;;;;;;10382731;28;20026;-83
2023/04/22 10:28:28;;;;;;;4.28;2.30;;;;;;;;;;10390108;28;20038;-82
2023/04/22 10:33:31;;;;;;;3.55;2.05;;;;;;;;;;10385483;28;20026;-83
2023/04/22 10:38:52;;;;;;;2.88;2.03;;;;;;;;;;10392384;28;20047;-82
2023/04/22 10:43:57;;;;;;;3.78;1.95;;;;;;;;;;10390675;28;20037;-82
2023/04/22 10:48:59;;;;;;;3.17;2.70;;;;;;;;;;10390273;28;20046;-82
2023/04/22 10:54:01;;;;;;;3.63;1.85;;;;;;;;;;10390512;28;20129;-81
2023/04/22 10:59:15;;;;;;;2.42;2.10;;;;;;;;;;10391600;28;20523;-83
2023/04/22 11:04:19;;;;;;;2.25;1.90;;;;;;;;;;10391501;28;20487;-83
2023/04/22 11:09:21;;;;;;;3.50;2.22;;;;;;;;;;10389382;28;20145;-83
2023/04/22 11:14:22;;;;;;;3.70;2.25;;;;;;;;;;10390558;28;20030;-83
2023/04/22 11:19:23;;;;;;;4.00;2.40;;;;;;;;;;10389465;28;20476;-82
2023/04/22 11:24:24;;;;;;;3.08;2.10;;;;;;;;;;10390747;28;20121;-84
2023/04/22 11:29:25;;;;;;;2.45;1.92;;;;;;;;;;10390879;28;20033;-82
2023/04/22 11:34:26;;;;;;;4.70;3.40;;;;;;;;;;10391078;28;20535;-82
2023/04/22 11:39:34;;;;;;;2.50;2.00;;;;;;;;;;10390948;28;20026;-83
2023/04/22 11:44:35;;;;;;;4.20;2.63;;;;;;;;;;10393961;28;20567;-83
2023/04/22 11:49:37;;;;;;;3.85;2.53;;;;;;;;;;10391704;28;20053;-83
2023/04/22 11:54:40;;;;;;;3.58;2.40;;;;;;;;;;10391593;28;20097;-83
2023/04/22 11:59:41;;;;;;;3.97;2.17;;;;;;;;;;10442297;22;20034;-82
2023/04/22 12:04:43;;;;;;;2.58;2.38;;;;;;;;;;10439037;28;20025;-84
2023/04/22 12:09:44;;;;;;;3.63;2.70;;;;;;;;;;10432649;28;20136;-83
2023/04/22 12:14:45;;;;;;;4.03;2.65;;;;;;;;;;10434540;28;20033;-84
2023/04/22 12:19:47;;;;;;;4.22;2.90;;;;;;;;;;10435359;28;20061;-84
2023/04/22 12:24:48;;;;;;;3.35;2.50;;;;;;;;;;10434830;28;20021;-84
2023/04/22 12:29:54;;;;;;;3.50;2.60;;;;;;;;;;10436663;28;20035;-84
2023/04/22 12:34:55;;;;;;;4.05;2.60;;;;;;;;;;10442366;28;20021;-85
2023/04/22 12:39:56;;;;;;;4.53;3.28;;;;;;;;;;10437819;28;20151;-85
2023/04/22 12:44:57;;;;;;;5.30;3.40;;;;;;;;;;10430824;28;20120;-84
2023/04/22 12:50:00;;;;;;;6.63;3.25;;;;;;;;;;10432287;28;20120;-85
2023/04/22 12:55:01;;;;;;;3.85;2.55;;;;;;;;;;10430329;28;20021;-85
2023/04/22 13:00:02;;;;;;;5.78;3.60;;;;;;;;;;10431351;28;20036;-84
2023/04/22 13:05:03;;;;;;;3.45;2.80;;;;;;;;;;10430115;28;20112;-85
2023/04/22 13:10:05;;;;;;;5.10;2.90;;;;;;;;;;10429542;28;20021;-84
2023/04/22 13:15:06;;;;;;;4.05;2.70;;;;;;;;;;10429017;28;20057;-84
2023/04/22 13:20:08;;;;;;;5.97;2.63;;;;;;;;;;10427240;28;20060;-84
2023/04/22 13:25:09;;;;;;;4.55;2.80;;;;;;;;;;10427886;28;20026;-86
2023/04/22 13:30:11;;;;;;;4.63;2.65;;;;;;;;;;10463536;28;20025;-84
2023/04/22 13:35:12;;;;;;;3.55;2.60;;;;;;;;;;10448618;28;20472;-85
2023/04/22 13:40:13;;;;;;;6.40;3.10;;;;;;;;;;10436780;28;20036;-85
2023/04/22 13:45:14;;;;;;;5.80;2.97;;;;;;;;;;10433885;28;20061;-85
2023/04/22 13:50:15;;;;;;;4.60;2.92;;;;;;;;;;10436349;28;20097;-84
2023/04/22 13:55:16;;;;;;;4.72;2.78;;;;;;;;;;10433292;28;20081;-86
2023/04/22 14:00:17;;;;;;;7.13;4.28;;;;;;;;;;10429817;28;20037;-84
2023/04/22 14:05:18;;;;;;;9.63;2.75;;;;;;;;;;10426339;28;20084;-84
2023/04/22 14:10:20;;;;;;;3.40;2.60;;;;;;;;;;10432244;28;20026;-86
2023/04/22 14:15:21;;;;;;;3.50;2.72;;;;;;;;;;10441010;28;20467;-84
2023/04/22 14:20:24;;;;;;;4.70;2.58;;;;;;;;;;10437718;28;20033;-84
2023/04/22 14:25:25;;;;;;;4.63;2.92;;;;;;;;;;10437341;28;20017;-84
2023/04/22 14:30:26;;;;;;;4.18;2.90;;;;;;;;;;10437349;28;20411;-84
2023/04/22 14:35:27;;;;;;;2.97;2.60;;;;;;;;;;10437488;28;20096;-84
2023/04/22 14:40:29;;;;;;;4.38;2.90;;;;;;;;;;10444711;28;20029;-84
2023/04/22 14:45:31;;;;;;;13.63;10.85;;;;;;;;;;10456063;28;20028;-83
2023/04/22 14:50:32;;;;;;;3.10;2.10;;;;;;;;;;10443285;28;20395;-84
2023/04/22 14:55:34;;;;;;;2.22;1.77;;;;;;;;;;10437029;28;20025;-84
2023/04/22 15:00:35;;;;;;;2.33;1.80;;;;;;;;;;10452258;28;20037;-83
2023/04/22 15:05:36;;;;;;;2.15;1.88;;;;;;;;;;10448727;28;20036;-84
2023/04/22 15:10:37;;;;;;;2.30;1.88;;;;;;;;;;10433637;28;20089;-84
2023/04/22 15:15:38;;;;;;;3.53;2.03;;;;;;;;;;10431767;28;20132;-84
2023/04/22 15:20:39;;;;;;;3.08;1.90;;;;;;;;;;10430445;28;20029;-84
2023/04/22 15:25:40;;;;;;;2.63;1.90;;;;;;;;;;10431106;28;20116;-84
2023/04/22 15:30:42;;;;;;;3.30;1.92;;;;;;;;;;10432006;28;20079;-85
2023/04/22 15:35:48;;;;;;;2.65;1.90;;;;;;;;;;10431020;28;20017;-84
2023/04/22 15:40:49;;;;;;;3.65;2.58;;;;;;;;;;10433073;28;20081;-84
2023/04/22 15:45:50;;;;;;;2.17;1.98;;;;;;;;;;10435207;28;20097;-84
2023/04/22 15:50:51;;;;;;;3.30;1.95;;;;;;;;;;10432312;28;20025;-84
2023/04/22 15:55:53;;;;;;;2.80;2.10;;;;;;;;;;10432539;28;20164;-84
2023/04/22 16:00:54;;;;;;;4.05;2.30;;;;;;;;;;10431966;28;20041;-84
2023/04/22 16:05:55;;;;;;;6.22;4.10;;;;;;;;;;10432849;28;20455;-84
2023/04/22 16:10:57;;;;;;;2.63;2.20;;;;;;;;;;10448649;28;20032;-84
2023/04/22 16:15:58;;;;;;;4.30;2.75;;;;;;;;;;10431544;28;20025;-84
2023/04/22 16:21:00;;;;;;;3.30;2.70;;;;;;;;;;10432251;28;20144;-84
2023/04/22 16:26:03;;;;;;;4.45;2.53;;;;;;;;;;10432666;28;20491;-84
2023/04/22 16:31:04;;;;;;;2.95;2.50;;;;;;;;;;10433528;28;20033;-85
2023/04/22 16:36:07;;;;;;;4.50;2.33;;;;;;;;;;10430691;28;20093;-84
2023/04/22 16:41:10;;;;;;;4.07;2.25;;;;;;;;;;10431681;28;20025;-85
2023/04/22 16:46:11;;;;;;;3.38;2.30;;;;;;;;;;10429861;28;20064;-85
2023/04/22 16:51:12;;;;;;;3.03;1.75;;;;;;;;;;10431747;28;20029;-84
2023/04/22 16:56:13;;;;;;;2.42;1.83;;;;;;;;;;10431409;28;20112;-84
2023/04/22 17:01:14;;;;;;;3.28;2.08;;;;;;;;;;10433541;28;20396;-84
2023/04/22 17:06:15;;;;;;;3.88;2.08;;;;;;;;;;10437112;28;20044;-85
2023/04/22 17:11:17;;;;;;;2.83;2.22;;;;;;;;;;10444877;28;20010;-83
2023/04/22 17:16:18;;;;;;;6.40;4.60;;;;;;;;;;10462560;28;20036;-83
2023/04/22 17:21:19;;;;;;;3.10;2.10;;;;;;;;;;10461228;28;20029;-85
2023/04/22 17:26:20;;;;;;;4.43;3.38;;;;;;;;;;10452254;28;20026;-86
2023/04/22 17:31:22;;;;;;;5.65;4.57;;;;;;;;;;10431895;28;20098;-85
2023/04/22 17:36:23;;;;;;;4.97;4.45;;;;;;;;;;10436300;28;20048;-85
2023/04/22 17:41:24;;;;;;;7.50;5.55;;;;;;;;;;10437774;28;20056;-85
2023/04/22 17:46:25;;;;;;;6.82;5.45;;;;;;;;;;10432809;28;20463;-85
2023/04/22 17:51:26;;;;;;;8.13;6.30;;;;;;;;;;10432981;28;20129;-85
2023/04/22 17:56:27;;;;;;;6.70;4.82;;;;;;;;;;10453418;28;20047;-85
2023/04/22 18:01:29;;;;;;;6.53;4.07;;;;;;;;;;10441005;22;20049;-83
2023/04/22 18:06:31;;;;;;;8.95;6.55;;;;;;;;;;10385281;28;20128;-84
2023/04/22 18:11:32;;;;;;;5.68;4.05;;;;;;;;;;10384528;28;20387;-84
2023/04/22 18:16:33;;;;;;;5.88;4.88;;;;;;;;;;10385581;28;20022;-84
2023/04/22 18:21:34;;;;;;;6.18;4.75;;;;;;;;;;10387217;28;20518;-84
2023/04/22 18:26:35;;;;;;;7.07;4.93;;;;;;;;;;10415191;28;20093;-83
2023/04/22 18:31:36;;;;;;;6.13;5.18;;;;;;;;;;10391146;28;20041;-83
2023/04/22 18:36:39;;;;;;;6.53;5.28;;;;;;;;;;10383343;28;20022;-84
2023/04/22 18:41:41;;;;;;;5.72;5.10;;;;;;;;;;10381769;28;20076;-84
2023/04/22 18:46:42;;;;;;;5.55;4.55;;;;;;;;;;10382926;28;20026;-85
2023/04/22 18:51:45;;;;;;;6.03;4.93;;;;;;;;;;10384247;28;20057;-84
2023/04/22 18:56:46;;;;;;;5.85;5.07;;;;;;;;;;10385392;28;20026;-84
2023/04/22 19:01:47;;;;;;;5.60;3.60;;;;;;;;;;10392192;28;20034;-83
2023/04/22 19:06:48;;;;;;;6.75;4.25;;;;;;;;;;10390912;28;20055;-83
2023/04/22 19:11:49;;;;;;;4.65;3.65;;;;;;;;;;10390512;28;20045;-84
2023/04/22 19:16:50;;;;;;;4.30;2.95;;;;;;;;;;10392222;28;20125;-83
